sensor_id;sensor_type;location;lat;lon;timestamp;P1;durP1;ratioP1;P2;durP2;ratioP2
39050;SDS011;24805;55.852;37.644;2023-03-21T00:04:03;5.10;;;3.10;;
39050;SDS011;24805;55.852;37.644;2023-03-21T00:09:06;5.53;;;2.92;;
39050;SDS011;24805;55.852;37.644;2023-03-21T00:19:18;8.05;;;3.05;;
39050;SDS011;24805;55.852;37.644;2023-03-21T00:24:21;7.75;;;4.07;;
39050;SDS011;24805;55.852;37.644;2023-03-21T00:29:24;6.38;;;3.28;;
39050;SDS011;24805;55.852;37.644;2023-03-21T00:34:26;10.40;;;3.42;;
39050;SDS011;24805;55.852;37.644;2023-03-21T00:39:45;12.18;;;3.65;;
39050;SDS011;24805;55.852;37.644;2023-03-21T00:44:49;7.22;;;3.70;;
39050;SDS011;24805;55.852;37.644;2023-03-21T00:49:52;5.03;;;3.08;;
39050;SDS011;24805;55.852;37.644;2023-03-21T00:54:55;4.80;;;3.20;;
39050;SDS011;24805;55.852;37.644;2023-03-21T01:04:59;8.68;;;3.28;;
39050;SDS011;24805;55.852;37.644;2023-03-21T01:15:03;7.03;;;3.80;;
39050;SDS011;24805;55.852;37.644;2023-03-21T01:20:06;5.85;;;3.90;;
39050;SDS011;24805;55.852;37.644;2023-03-21T01:25:08;6.03;;;3.25;;
39050;SDS011;24805;55.852;37.644;2023-03-21T01:30:23;13.02;;;3.65;;
39050;SDS011;24805;55.852;37.644;2023-03-21T01:35:27;7.35;;;3.33;;
39050;SDS011;24805;55.852;37.644;2023-03-21T01:40:38;6.65;;;3.20;;
39050;SDS011;24805;55.852;37.644;2023-03-21T01:51:32;5.78;;;2.90;;
39050;SDS011;24805;55.852;37.644;2023-03-21T01:56:37;7.88;;;3.10;;
39050;SDS011;24805;55.852;37.644;2023-03-21T02:01:47;10.38;;;3.60;;
39050;SDS011;24805;55.852;37.644;2023-03-21T02:06:56;9.18;;;3.17;;
39050;SDS011;24805;55.852;37.644;2023-03-21T02:12:19;8.32;;;3.90;;
39050;SDS011;24805;55.852;37.644;2023-03-21T02:28:15;11.48;;;3.30;;
39050;SDS011;24805;55.852;37.644;2023-03-21T02:33:45;9.35;;;3.35;;
39050;SDS011;24805;55.852;37.644;2023-03-21T02:39:17;10.35;;;3.60;;
39050;SDS011;24805;55.852;37.644;2023-03-21T02:44:38;6.97;;;3.35;;
39050;SDS011;24805;55.852;37.644;2023-03-21T02:49:49;7.22;;;3.40;;
39050;SDS011;24805;55.852;37.644;2023-03-21T02:54:58;7.75;;;3.97;;
39050;SDS011;24805;55.852;37.644;2023-03-21T03:00:08;7.60;;;3.15;;
39050;SDS011;24805;55.852;37.644;2023-03-21T03:05:20;6.55;;;3.28;;
39050;SDS011;24805;55.852;37.644;2023-03-21T03:21:31;10.23;;;3.90;;
39050;SDS011;24805;55.852;37.644;2023-03-21T03:26:41;8.40;;;3.60;;
39050;SDS011;24805;55.852;37.644;2023-03-21T03:31:50;7.25;;;3.67;;
39050;SDS011;24805;55.852;37.644;2023-03-21T03:36:55;7.30;;;3.17;;
39050;SDS011;24805;55.852;37.644;2023-03-21T03:42:01;8.35;;;4.05;;
39050;SDS011;24805;55.852;37.644;2023-03-21T03:47:35;7.43;;;4.10;;
39050;SDS011;24805;55.852;37.644;2023-03-21T03:53:02;5.97;;;3.97;;
39050;SDS011;24805;55.852;37.644;2023-03-21T03:58:21;6.40;;;3.50;;
39050;SDS011;24805;55.852;37.644;2023-03-21T04:03:34;9.48;;;4.40;;
39050;SDS011;24805;55.852;37.644;2023-03-21T04:08:51;9.02;;;3.58;;
39050;SDS011;24805;55.852;37.644;2023-03-21T04:13:53;8.57;;;4.38;;
39050;SDS011;24805;55.852;37.644;2023-03-21T04:18:57;9.50;;;4.30;;
39050;SDS011;24805;55.852;37.644;2023-03-21T04:23:59;10.80;;;4.35;;
39050;SDS011;24805;55.852;37.644;2023-03-21T04:29:02;9.23;;;4.05;;
39050;SDS011;24805;55.852;37.644;2023-03-21T04:34:27;9.27;;;4.47;;
39050;SDS011;24805;55.852;37.644;2023-03-21T04:39:32;7.13;;;4.03;;
39050;SDS011;24805;55.852;37.644;2023-03-21T04:44:34;9.15;;;4.25;;
39050;SDS011;24805;55.852;37.644;2023-03-21T04:49:37;13.30;;;5.18;;
39050;SDS011;24805;55.852;37.644;2023-03-21T04:54:40;9.23;;;4.28;;
39050;SDS011;24805;55.852;37.644;2023-03-21T04:59:42;8.45;;;4.30;;
39050;SDS011;24805;55.852;37.644;2023-03-21T05:09:46;9.65;;;4.22;;
39050;SDS011;24805;55.852;37.644;2023-03-21T05:14:50;11.57;;;4.38;;
39050;SDS011;24805;55.852;37.644;2023-03-21T05:24:57;7.57;;;5.28;;
39050;SDS011;24805;55.852;37.644;2023-03-21T05:30:17;9.90;;;4.00;;
39050;SDS011;24805;55.852;37.644;2023-03-21T05:35:22;9.05;;;4.25;;
39050;SDS011;24805;55.852;37.644;2023-03-21T05:40:28;7.93;;;3.60;;
39050;SDS011;24805;55.852;37.644;2023-03-21T05:45:32;10.27;;;4.57;;
39050;SDS011;24805;55.852;37.644;2023-03-21T05:50:34;10.43;;;4.35;;
39050;SDS011;24805;55.852;37.644;2023-03-21T05:55:45;9.88;;;4.18;;
39050;SDS011;24805;55.852;37.644;2023-03-21T06:01:04;9.57;;;4.20;;
39050;SDS011;24805;55.852;37.644;2023-03-21T06:06:09;8.43;;;4.22;;
39050;SDS011;24805;55.852;37.644;2023-03-21T06:11:31;9.82;;;3.90;;
39050;SDS011;24805;55.852;37.644;2023-03-21T06:16:50;9.93;;;4.43;;
39050;SDS011;24805;55.852;37.644;2023-03-21T06:21:54;9.75;;;4.78;;
39050;SDS011;24805;55.852;37.644;2023-03-21T06:26:57;10.50;;;4.55;;
39050;SDS011;24805;55.852;37.644;2023-03-21T06:32:05;10.95;;;4.88;;
39050;SDS011;24805;55.852;37.644;2023-03-21T06:37:08;11.00;;;5.00;;
39050;SDS011;24805;55.852;37.644;2023-03-21T06:42:11;9.15;;;5.38;;
39050;SDS011;24805;55.852;37.644;2023-03-21T06:47:14;10.95;;;6.13;;
39050;SDS011;24805;55.852;37.644;2023-03-21T06:52:19;8.93;;;5.47;;
39050;SDS011;24805;55.852;37.644;2023-03-21T06:57:22;9.40;;;5.07;;
39050;SDS011;24805;55.852;37.644;2023-03-21T07:02:24;8.85;;;4.82;;
39050;SDS011;24805;55.852;37.644;2023-03-21T07:07:41;14.40;;;7.90;;
39050;SDS011;24805;55.852;37.644;2023-03-21T07:12:43;9.82;;;5.13;;
39050;SDS011;24805;55.852;37.644;2023-03-21T07:17:53;8.32;;;4.15;;
39050;SDS011;24805;55.852;37.644;2023-03-21T07:27:59;9.30;;;4.80;;
39050;SDS011;24805;55.852;37.644;2023-03-21T07:33:02;7.22;;;4.50;;
39050;SDS011;24805;55.852;37.644;2023-03-21T07:38:05;9.68;;;5.15;;
39050;SDS011;24805;55.852;37.644;2023-03-21T07:48:09;6.55;;;4.07;;
39050;SDS011;24805;55.852;37.644;2023-03-21T07:53:14;4.32;;;3.20;;
39050;SDS011;24805;55.852;37.644;2023-03-21T07:58:16;6.50;;;4.43;;
39050;SDS011;24805;55.852;37.644;2023-03-21T08:08:20;8.52;;;4.80;;
39050;SDS011;24805;55.852;37.644;2023-03-21T08:13:22;18.30;;;8.20;;
39050;SDS011;24805;55.852;37.644;2023-03-21T08:18:26;11.18;;;5.35;;
39050;SDS011;24805;55.852;37.644;2023-03-21T08:23:28;6.05;;;4.65;;
39050;SDS011;24805;55.852;37.644;2023-03-21T08:33:32;9.43;;;5.53;;
39050;SDS011;24805;55.852;37.644;2023-03-21T08:38:35;6.40;;;3.67;;
39050;SDS011;24805;55.852;37.644;2023-03-21T08:43:37;6.18;;;3.42;;
39050;SDS011;24805;55.852;37.644;2023-03-21T08:48:39;3.90;;;3.20;;
39050;SDS011;24805;55.852;37.644;2023-03-21T08:53:41;5.38;;;3.53;;
39050;SDS011;24805;55.852;37.644;2023-03-21T08:58:44;5.18;;;2.58;;
39050;SDS011;24805;55.852;37.644;2023-03-21T09:08:48;5.33;;;3.50;;
39050;SDS011;24805;55.852;37.644;2023-03-21T09:13:54;6.05;;;3.65;;
39050;SDS011;24805;55.852;37.644;2023-03-21T09:24:00;8.38;;;4.28;;
39050;SDS011;24805;55.852;37.644;2023-03-21T09:29:03;8.27;;;5.22;;
39050;SDS011;24805;55.852;37.644;2023-03-21T09:34:06;8.88;;;5.00;;
39050;SDS011;24805;55.852;37.644;2023-03-21T09:39:09;9.27;;;5.65;;
39050;SDS011;24805;55.852;37.644;2023-03-21T09:44:21;9.95;;;5.72;;
39050;SDS011;24805;55.852;37.644;2023-03-21T09:49:34;6.45;;;5.18;;
39050;SDS011;24805;55.852;37.644;2023-03-21T09:54:46;7.63;;;5.22;;
39050;SDS011;24805;55.852;37.644;2023-03-21T10:04:51;8.05;;;6.30;;
39050;SDS011;24805;55.852;37.644;2023-03-21T10:09:53;9.70;;;6.72;;
39050;SDS011;24805;55.852;37.644;2023-03-21T10:14:57;8.13;;;5.82;;
39050;SDS011;24805;55.852;37.644;2023-03-21T10:20:13;7.65;;;5.72;;
39050;SDS011;24805;55.852;37.644;2023-03-21T10:25:21;8.18;;;6.35;;
39050;SDS011;24805;55.852;37.644;2023-03-21T10:36:06;7.78;;;5.15;;
39050;SDS011;24805;55.852;37.644;2023-03-21T10:41:12;6.63;;;5.53;;
39050;SDS011;24805;55.852;37.644;2023-03-21T10:46:18;8.32;;;5.55;;
39050;SDS011;24805;55.852;37.644;2023-03-21T10:51:26;6.72;;;4.25;;
39050;SDS011;24805;55.852;37.644;2023-03-21T10:56:34;5.97;;;4.32;;
39050;SDS011;24805;55.852;37.644;2023-03-21T11:01:41;7.05;;;4.70;;
39050;SDS011;24805;55.852;37.644;2023-03-21T11:06:51;6.03;;;4.45;;
39050;SDS011;24805;55.852;37.644;2023-03-21T11:12:09;4.80;;;3.72;;
39050;SDS011;24805;55.852;37.644;2023-03-21T11:22:22;5.75;;;4.00;;
39050;SDS011;24805;55.852;37.644;2023-03-21T11:27:27;5.00;;;3.15;;
39050;SDS011;24805;55.852;37.644;2023-03-21T11:32:32;7.22;;;2.78;;
39050;SDS011;24805;55.852;37.644;2023-03-21T11:37:38;4.97;;;2.60;;
39050;SDS011;24805;55.852;37.644;2023-03-21T11:42:47;7.90;;;3.00;;
39050;SDS011;24805;55.852;37.644;2023-03-21T11:47:56;6.70;;;3.28;;
39050;SDS011;24805;55.852;37.644;2023-03-21T12:03:26;4.15;;;2.92;;
39050;SDS011;24805;55.852;37.644;2023-03-21T12:14:02;4.22;;;3.20;;
39050;SDS011;24805;55.852;37.644;2023-03-21T12:24:38;4.13;;;2.72;;
39050;SDS011;24805;55.852;37.644;2023-03-21T12:45:35;5.63;;;2.85;;
39050;SDS011;24805;55.852;37.644;2023-03-21T12:50:48;6.82;;;3.40;;
39050;SDS011;24805;55.852;37.644;2023-03-21T12:55:54;5.20;;;3.22;;
39050;SDS011;24805;55.852;37.644;2023-03-21T13:01:02;5.97;;;2.90;;
39050;SDS011;24805;55.852;37.644;2023-03-21T13:06:06;5.05;;;3.00;;
39050;SDS011;24805;55.852;37.644;2023-03-21T13:11:12;3.60;;;2.58;;
39050;SDS011;24805;55.852;37.644;2023-03-21T13:16:26;5.78;;;3.45;;
39050;SDS011;24805;55.852;37.644;2023-03-21T13:37:34;8.50;;;3.50;;
39050;SDS011;24805;55.852;37.644;2023-03-21T13:42:44;6.13;;;3.90;;
39050;SDS011;24805;55.852;37.644;2023-03-21T13:58:21;9.80;;;3.92;;
39050;SDS011;24805;55.852;37.644;2023-03-21T14:03:24;6.57;;;3.80;;
39050;SDS011;24805;55.852;37.644;2023-03-21T14:08:33;6.65;;;3.83;;
39050;SDS011;24805;55.852;37.644;2023-03-21T14:13:39;7.53;;;3.50;;
39050;SDS011;24805;55.852;37.644;2023-03-21T14:18:54;11.98;;;4.38;;
39050;SDS011;24805;55.852;37.644;2023-03-21T14:24:02;11.93;;;3.90;;
39050;SDS011;24805;55.852;37.644;2023-03-21T14:29:09;8.75;;;4.20;;
39050;SDS011;24805;55.852;37.644;2023-03-21T14:34:30;7.40;;;3.55;;
39050;SDS011;24805;55.852;37.644;2023-03-21T14:39:35;8.80;;;3.60;;
39050;SDS011;24805;55.852;37.644;2023-03-21T14:49:55;7.93;;;3.47;;
39050;SDS011;24805;55.852;37.644;2023-03-21T14:54:58;6.82;;;3.05;;
39050;SDS011;24805;55.852;37.644;2023-03-21T15:00:04;8.60;;;3.95;;
39050;SDS011;24805;55.852;37.644;2023-03-21T15:05:25;10.93;;;3.63;;
39050;SDS011;24805;55.852;37.644;2023-03-21T15:10:39;8.60;;;3.35;;
39050;SDS011;24805;55.852;37.644;2023-03-21T15:15:41;9.20;;;3.95;;
39050;SDS011;24805;55.852;37.644;2023-03-21T15:20:45;9.57;;;3.67;;
39050;SDS011;24805;55.852;37.644;2023-03-21T15:25:48;8.07;;;3.45;;
39050;SDS011;24805;55.852;37.644;2023-03-21T15:30:51;12.02;;;3.78;;
39050;SDS011;24805;55.852;37.644;2023-03-21T15:35:57;9.85;;;3.72;;
39050;SDS011;24805;55.852;37.644;2023-03-21T15:57:03;12.13;;;3.45;;
39050;SDS011;24805;55.852;37.644;2023-03-21T16:02:21;11.73;;;4.20;;
39050;SDS011;24805;55.852;37.644;2023-03-21T16:07:26;11.25;;;4.03;;
39050;SDS011;24805;55.852;37.644;2023-03-21T16:12:29;10.77;;;4.18;;
39050;SDS011;24805;55.852;37.644;2023-03-21T16:17:32;7.50;;;3.25;;
39050;SDS011;24805;55.852;37.644;2023-03-21T16:22:40;5.60;;;3.38;;
39050;SDS011;24805;55.852;37.644;2023-03-21T16:32:44;6.15;;;3.42;;
39050;SDS011;24805;55.852;37.644;2023-03-21T16:37:46;6.97;;;3.22;;
39050;SDS011;24805;55.852;37.644;2023-03-21T16:42:51;9.93;;;5.03;;
39050;SDS011;24805;55.852;37.644;2023-03-21T16:52:55;7.00;;;3.75;;
39050;SDS011;24805;55.852;37.644;2023-03-21T16:57:58;6.82;;;4.45;;
39050;SDS011;24805;55.852;37.644;2023-03-21T17:03:01;7.07;;;3.45;;
39050;SDS011;24805;55.852;37.644;2023-03-21T17:08:21;7.53;;;4.05;;
39050;SDS011;24805;55.852;37.644;2023-03-21T17:13:23;8.20;;;3.75;;
39050;SDS011;24805;55.852;37.644;2023-03-21T17:23:27;13.48;;;4.20;;
39050;SDS011;24805;55.852;37.644;2023-03-21T17:28:29;9.73;;;3.90;;
39050;SDS011;24805;55.852;37.644;2023-03-21T17:33:31;8.68;;;5.00;;
39050;SDS011;24805;55.852;37.644;2023-03-21T17:43:35;16.90;;;10.15;;
39050;SDS011;24805;55.852;37.644;2023-03-21T17:48:37;16.38;;;9.88;;
39050;SDS011;24805;55.852;37.644;2023-03-21T17:53:43;17.20;;;10.82;;
39050;SDS011;24805;55.852;37.644;2023-03-21T17:58:46;16.17;;;10.55;;
39050;SDS011;24805;55.852;37.644;2023-03-21T18:03:51;16.97;;;11.37;;
39050;SDS011;24805;55.852;37.644;2023-03-21T18:08:55;16.20;;;11.32;;
39050;SDS011;24805;55.852;37.644;2023-03-21T18:13:59;16.02;;;11.52;;
39050;SDS011;24805;55.852;37.644;2023-03-21T18:19:16;20.15;;;12.73;;
39050;SDS011;24805;55.852;37.644;2023-03-21T18:29:20;19.30;;;11.83;;
39050;SDS011;24805;55.852;37.644;2023-03-21T18:39:44;19.55;;;12.55;;
39050;SDS011;24805;55.852;37.644;2023-03-21T18:49:48;18.30;;;10.75;;
39050;SDS011;24805;55.852;37.644;2023-03-21T18:55:10;18.95;;;11.75;;
39050;SDS011;24805;55.852;37.644;2023-03-21T19:00:15;22.20;;;12.88;;
39050;SDS011;24805;55.852;37.644;2023-03-21T19:05:22;16.75;;;11.23;;
39050;SDS011;24805;55.852;37.644;2023-03-21T19:10:25;19.30;;;11.63;;
39050;SDS011;24805;55.852;37.644;2023-03-21T19:15:27;15.57;;;10.52;;
39050;SDS011;24805;55.852;37.644;2023-03-21T19:20:30;20.13;;;12.55;;
39050;SDS011;24805;55.852;37.644;2023-03-21T19:25:32;16.35;;;11.50;;
39050;SDS011;24805;55.852;37.644;2023-03-21T19:30:34;13.93;;;8.80;;
39050;SDS011;24805;55.852;37.644;2023-03-21T19:35:39;16.13;;;10.27;;
39050;SDS011;24805;55.852;37.644;2023-03-21T19:40:42;17.00;;;9.63;;
39050;SDS011;24805;55.852;37.644;2023-03-21T19:45:47;12.02;;;7.50;;
39050;SDS011;24805;55.852;37.644;2023-03-21T19:50:49;13.98;;;9.48;;
39050;SDS011;24805;55.852;37.644;2023-03-21T19:56:11;14.48;;;9.70;;
39050;SDS011;24805;55.852;37.644;2023-03-21T20:01:24;13.73;;;8.55;;
39050;SDS011;24805;55.852;37.644;2023-03-21T20:06:26;14.65;;;8.70;;
39050;SDS011;24805;55.852;37.644;2023-03-21T20:11:28;16.38;;;9.07;;
39050;SDS011;24805;55.852;37.644;2023-03-21T20:21:37;14.68;;;8.65;;
39050;SDS011;24805;55.852;37.644;2023-03-21T20:26:56;13.95;;;8.65;;
39050;SDS011;24805;55.852;37.644;2023-03-21T20:37:00;11.65;;;7.45;;
39050;SDS011;24805;55.852;37.644;2023-03-21T20:42:07;11.15;;;7.43;;
39050;SDS011;24805;55.852;37.644;2023-03-21T20:47:09;13.32;;;8.63;;
39050;SDS011;24805;55.852;37.644;2023-03-21T20:52:12;14.32;;;8.82;;
39050;SDS011;24805;55.852;37.644;2023-03-21T20:57:36;12.95;;;8.55;;
39050;SDS011;24805;55.852;37.644;2023-03-21T21:02:43;13.00;;;8.25;;
39050;SDS011;24805;55.852;37.644;2023-03-21T21:07:46;12.80;;;8.20;;
39050;SDS011;24805;55.852;37.644;2023-03-21T21:12:49;11.98;;;7.68;;
39050;SDS011;24805;55.852;37.644;2023-03-21T21:17:51;14.55;;;8.05;;
39050;SDS011;24805;55.852;37.644;2023-03-21T21:23:07;12.82;;;8.05;;
39050;SDS011;24805;55.852;37.644;2023-03-21T21:28:10;12.05;;;7.85;;
39050;SDS011;24805;55.852;37.644;2023-03-21T21:33:12;10.90;;;6.85;;
39050;SDS011;24805;55.852;37.644;2023-03-21T21:38:18;13.82;;;7.55;;
39050;SDS011;24805;55.852;37.644;2023-03-21T21:43:20;9.88;;;6.07;;
39050;SDS011;24805;55.852;37.644;2023-03-21T21:48:23;12.95;;;7.78;;
39050;SDS011;24805;55.852;37.644;2023-03-21T21:53:25;10.40;;;6.35;;
39050;SDS011;24805;55.852;37.644;2023-03-21T21:58:29;13.10;;;6.40;;
39050;SDS011;24805;55.852;37.644;2023-03-21T22:03:34;10.02;;;6.30;;
39050;SDS011;24805;55.852;37.644;2023-03-21T22:08:42;8.77;;;5.22;;
39050;SDS011;24805;55.852;37.644;2023-03-21T22:13:47;10.15;;;5.90;;
39050;SDS011;24805;55.852;37.644;2023-03-21T22:28:54;10.80;;;5.88;;
39050;SDS011;24805;55.852;37.644;2023-03-21T22:38:58;11.10;;;5.47;;
39050;SDS011;24805;55.852;37.644;2023-03-21T22:49:02;9.75;;;6.70;;
39050;SDS011;24805;55.852;37.644;2023-03-21T22:54:04;10.18;;;6.05;;
39050;SDS011;24805;55.852;37.644;2023-03-21T23:04:08;9.88;;;6.05;;
39050;SDS011;24805;55.852;37.644;2023-03-21T23:09:11;10.35;;;6.03;;
39050;SDS011;24805;55.852;37.644;2023-03-21T23:14:14;8.10;;;4.60;;
39050;SDS011;24805;55.852;37.644;2023-03-21T23:19:18;11.32;;;5.72;;
39050;SDS011;24805;55.852;37.644;2023-03-21T23:24:22;9.20;;;5.78;;
39050;SDS011;24805;55.852;37.644;2023-03-21T23:29:24;10.63;;;6.22;;
39050;SDS011;24805;55.852;37.644;2023-03-21T23:34:27;7.82;;;5.13;;
39050;SDS011;24805;55.852;37.644;2023-03-21T23:39:29;7.85;;;5.00;;
39050;SDS011;24805;55.852;37.644;2023-03-21T23:44:34;8.05;;;5.65;;
39050;SDS011;24805;55.852;37.644;2023-03-21T23:49:36;10.02;;;5.45;;
39050;SDS011;24805;55.852;37.644;2023-03-21T23:59:40;8.02;;;5.82;;
